sensor_id;sensor_type;location;lat;lon;timestamp;P1;durP1;ratioP1;P2;durP2;ratioP2
50559;SDS011;36510;52.610;13.468;2022-07-29T00:01:15;5.85;;;3.00;;
50559;SDS011;36510;52.610;13.468;2022-07-29T00:06:05;5.80;;;3.25;;
50559;SDS011;36510;52.610;13.468;2022-07-29T00:10:56;5.60;;;3.40;;
50559;SDS011;36510;52.610;13.468;2022-07-29T00:15:46;6.30;;;3.65;;
50559;SDS011;36510;52.610;13.468;2022-07-29T00:20:37;6.85;;;3.40;;
50559;SDS011;36510;52.610;13.468;2022-07-29T00:25:27;5.78;;;3.58;;
50559;SDS011;36510;52.610;13.468;2022-07-29T00:30:18;5.10;;;3.42;;
50559;SDS011;36510;52.610;13.468;2022-07-29T00:35:08;7.35;;;3.45;;
50559;SDS011;36510;52.610;13.468;2022-07-29T00:40:18;6.35;;;3.80;;
50559;SDS011;36510;52.610;13.468;2022-07-29T00:45:08;6.15;;;3.55;;
50559;SDS011;36510;52.610;13.468;2022-07-29T00:49:59;7.10;;;3.25;;
50559;SDS011;36510;52.610;13.468;2022-07-29T00:54:50;6.38;;;3.13;;
50559;SDS011;36510;52.610;13.468;2022-07-29T00:59:40;6.75;;;3.33;;
50559;SDS011;36510;52.610;13.468;2022-07-29T01:04:31;5.65;;;3.45;;
50559;SDS011;36510;52.610;13.468;2022-07-29T01:09:22;7.40;;;3.53;;
50559;SDS011;36510;52.610;13.468;2022-07-29T01:14:13;5.85;;;3.55;;
50559;SDS011;36510;52.610;13.468;2022-07-29T01:19:23;5.18;;;3.03;;
50559;SDS011;36510;52.610;13.468;2022-07-29T01:24:49;7.07;;;3.30;;
50559;SDS011;36510;52.610;13.468;2022-07-29T01:30:01;6.05;;;3.17;;
50559;SDS011;36510;52.610;13.468;2022-07-29T01:34:57;6.88;;;3.42;;
50559;SDS011;36510;52.610;13.468;2022-07-29T01:39:55;6.28;;;3.22;;
50559;SDS011;36510;52.610;13.468;2022-07-29T01:44:53;7.00;;;3.38;;
50559;SDS011;36510;52.610;13.468;2022-07-29T01:49:51;8.50;;;3.20;;
50559;SDS011;36510;52.610;13.468;2022-07-29T01:54:45;5.55;;;3.38;;
50559;SDS011;36510;52.610;13.468;2022-07-29T01:59:46;9.05;;;3.20;;
50559;SDS011;36510;52.610;13.468;2022-07-29T02:04:38;5.97;;;3.15;;
50559;SDS011;36510;52.610;13.468;2022-07-29T02:09:31;5.97;;;3.22;;
50559;SDS011;36510;52.610;13.468;2022-07-29T02:14:24;7.50;;;3.22;;
50559;SDS011;36510;52.610;13.468;2022-07-29T02:19:18;7.03;;;3.42;;
50559;SDS011;36510;52.610;13.468;2022-07-29T02:24:12;3.85;;;2.97;;
50559;SDS011;36510;52.610;13.468;2022-07-29T02:29:03;7.00;;;3.10;;
50559;SDS011;36510;52.610;13.468;2022-07-29T02:33:54;6.80;;;3.00;;
50559;SDS011;36510;52.610;13.468;2022-07-29T02:38:47;4.95;;;2.70;;
50559;SDS011;36510;52.610;13.468;2022-07-29T02:43:41;7.00;;;3.00;;
50559;SDS011;36510;52.610;13.468;2022-07-29T02:48:36;6.53;;;2.80;;
50559;SDS011;36510;52.610;13.468;2022-07-29T02:53:28;5.20;;;2.75;;
50559;SDS011;36510;52.610;13.468;2022-07-29T02:58:29;5.43;;;2.90;;
50559;SDS011;36510;52.610;13.468;2022-07-29T03:03:22;4.50;;;2.80;;
50559;SDS011;36510;52.610;13.468;2022-07-29T03:08:17;5.85;;;2.90;;
50559;SDS011;36510;52.610;13.468;2022-07-29T03:13:07;6.55;;;3.17;;
50559;SDS011;36510;52.610;13.468;2022-07-29T03:17:59;4.30;;;2.85;;
50559;SDS011;36510;52.610;13.468;2022-07-29T03:22:50;6.93;;;3.05;;
50559;SDS011;36510;52.610;13.468;2022-07-29T03:27:41;8.25;;;3.10;;
50559;SDS011;36510;52.610;13.468;2022-07-29T03:32:32;6.90;;;2.80;;
50559;SDS011;36510;52.610;13.468;2022-07-29T03:37:23;7.15;;;2.80;;
50559;SDS011;36510;52.610;13.468;2022-07-29T03:42:13;8.32;;;2.78;;
50559;SDS011;36510;52.610;13.468;2022-07-29T03:47:06;4.82;;;2.90;;
50559;SDS011;36510;52.610;13.468;2022-07-29T03:51:59;6.22;;;2.63;;
50559;SDS011;36510;52.610;13.468;2022-07-29T03:56:50;6.82;;;3.03;;
50559;SDS011;36510;52.610;13.468;2022-07-29T04:01:42;5.00;;;2.65;;
50559;SDS011;36510;52.610;13.468;2022-07-29T04:06:37;6.70;;;2.90;;
50559;SDS011;36510;52.610;13.468;2022-07-29T04:11:28;4.53;;;2.80;;
50559;SDS011;36510;52.610;13.468;2022-07-29T04:16:19;5.00;;;2.97;;
50559;SDS011;36510;52.610;13.468;2022-07-29T04:21:09;7.97;;;3.00;;
50559;SDS011;36510;52.610;13.468;2022-07-29T04:26:00;8.13;;;3.10;;
50559;SDS011;36510;52.610;13.468;2022-07-29T04:30:51;6.18;;;2.78;;
50559;SDS011;36510;52.610;13.468;2022-07-29T04:35:41;7.85;;;3.10;;
50559;SDS011;36510;52.610;13.468;2022-07-29T04:40:31;5.85;;;2.75;;
50559;SDS011;36510;52.610;13.468;2022-07-29T04:45:23;3.88;;;2.70;;
50559;SDS011;36510;52.610;13.468;2022-07-29T04:50:13;3.55;;;2.88;;
50559;SDS011;36510;52.610;13.468;2022-07-29T04:55:04;6.18;;;2.63;;
50559;SDS011;36510;52.610;13.468;2022-07-29T04:59:55;5.07;;;2.80;;
50559;SDS011;36510;52.610;13.468;2022-07-29T05:04:45;4.38;;;2.70;;
50559;SDS011;36510;52.610;13.468;2022-07-29T05:09:36;7.00;;;2.85;;
50559;SDS011;36510;52.610;13.468;2022-07-29T05:14:26;4.45;;;2.60;;
50559;SDS011;36510;52.610;13.468;2022-07-29T05:19:17;5.13;;;2.47;;
50559;SDS011;36510;52.610;13.468;2022-07-29T05:24:08;5.75;;;2.75;;
50559;SDS011;36510;52.610;13.468;2022-07-29T05:28:58;5.60;;;3.03;;
50559;SDS011;36510;52.610;13.468;2022-07-29T05:33:48;5.47;;;2.67;;
50559;SDS011;36510;52.610;13.468;2022-07-29T05:38:39;7.10;;;2.90;;
50559;SDS011;36510;52.610;13.468;2022-07-29T05:43:29;5.38;;;2.78;;
50559;SDS011;36510;52.610;13.468;2022-07-29T05:48:20;6.07;;;2.78;;
50559;SDS011;36510;52.610;13.468;2022-07-29T05:53:10;6.03;;;2.75;;
50559;SDS011;36510;52.610;13.468;2022-07-29T05:58:01;5.43;;;2.70;;
50559;SDS011;36510;52.610;13.468;2022-07-29T06:02:51;4.10;;;2.72;;
50559;SDS011;36510;52.610;13.468;2022-07-29T06:07:42;5.03;;;2.90;;
50559;SDS011;36510;52.610;13.468;2022-07-29T06:12:32;6.03;;;2.50;;
50559;SDS011;36510;52.610;13.468;2022-07-29T06:17:23;5.35;;;2.65;;
50559;SDS011;36510;52.610;13.468;2022-07-29T06:22:14;5.30;;;2.78;;
50559;SDS011;36510;52.610;13.468;2022-07-29T06:27:06;7.65;;;2.60;;
50559;SDS011;36510;52.610;13.468;2022-07-29T06:31:57;6.38;;;2.65;;
50559;SDS011;36510;52.610;13.468;2022-07-29T06:36:47;6.78;;;2.70;;
50559;SDS011;36510;52.610;13.468;2022-07-29T06:41:39;7.22;;;2.75;;
50559;SDS011;36510;52.610;13.468;2022-07-29T06:46:30;11.27;;;2.70;;
50559;SDS011;36510;52.610;13.468;2022-07-29T06:51:20;8.23;;;3.00;;
50559;SDS011;36510;52.610;13.468;2022-07-29T06:56:11;5.85;;;2.45;;
50559;SDS011;36510;52.610;13.468;2022-07-29T07:01:04;4.75;;;2.88;;
50559;SDS011;36510;52.610;13.468;2022-07-29T07:05:55;7.03;;;2.60;;
50559;SDS011;36510;52.610;13.468;2022-07-29T07:10:46;7.20;;;2.38;;
50559;SDS011;36510;52.610;13.468;2022-07-29T07:15:36;8.48;;;2.53;;
50559;SDS011;36510;52.610;13.468;2022-07-29T07:20:27;10.52;;;2.80;;
50559;SDS011;36510;52.610;13.468;2022-07-29T07:25:18;7.07;;;2.60;;
50559;SDS011;36510;52.610;13.468;2022-07-29T07:30:08;11.07;;;2.80;;
50559;SDS011;36510;52.610;13.468;2022-07-29T07:34:59;6.07;;;2.58;;
50559;SDS011;36510;52.610;13.468;2022-07-29T07:39:50;5.55;;;2.17;;
50559;SDS011;36510;52.610;13.468;2022-07-29T07:44:41;5.30;;;1.83;;
50559;SDS011;36510;52.610;13.468;2022-07-29T07:49:32;6.20;;;2.17;;
50559;SDS011;36510;52.610;13.468;2022-07-29T07:54:22;6.13;;;2.40;;
50559;SDS011;36510;52.610;13.468;2022-07-29T07:59:12;4.57;;;1.88;;
50559;SDS011;36510;52.610;13.468;2022-07-29T08:04:03;3.20;;;1.67;;
50559;SDS011;36510;52.610;13.468;2022-07-29T08:08:54;3.10;;;1.67;;
50559;SDS011;36510;52.610;13.468;2022-07-29T08:13:44;6.05;;;1.60;;
50559;SDS011;36510;52.610;13.468;2022-07-29T08:18:35;3.70;;;1.40;;
50559;SDS011;36510;52.610;13.468;2022-07-29T08:23:25;4.50;;;1.52;;
50559;SDS011;36510;52.610;13.468;2022-07-29T08:28:17;5.13;;;1.52;;
50559;SDS011;36510;52.610;13.468;2022-07-29T08:33:07;9.43;;;2.13;;
50559;SDS011;36510;52.610;13.468;2022-07-29T08:38:01;6.72;;;1.73;;
50559;SDS011;36510;52.610;13.468;2022-07-29T08:42:53;3.35;;;1.58;;
50559;SDS011;36510;52.610;13.468;2022-07-29T08:47:44;5.22;;;1.67;;
50559;SDS011;36510;52.610;13.468;2022-07-29T08:52:35;3.55;;;1.98;;
50559;SDS011;36510;52.610;13.468;2022-07-29T08:57:27;7.78;;;1.73;;
50559;SDS011;36510;52.610;13.468;2022-07-29T09:02:19;4.82;;;1.88;;
50559;SDS011;36510;52.610;13.468;2022-07-29T09:07:14;4.47;;;1.35;;
50559;SDS011;36510;52.610;13.468;2022-07-29T09:12:06;5.13;;;1.65;;
50559;SDS011;36510;52.610;13.468;2022-07-29T09:16:58;4.28;;;1.60;;
50559;SDS011;36510;52.610;13.468;2022-07-29T09:21:48;4.13;;;1.52;;
50559;SDS011;36510;52.610;13.468;2022-07-29T09:26:48;6.22;;;2.00;;
50559;SDS011;36510;52.610;13.468;2022-07-29T09:31:40;2.10;;;1.25;;
50559;SDS011;36510;52.610;13.468;2022-07-29T09:36:45;6.18;;;1.60;;
50559;SDS011;36510;52.610;13.468;2022-07-29T09:46:39;3.97;;;1.40;;
50559;SDS011;36510;52.610;13.468;2022-07-29T09:51:32;5.60;;;1.20;;
50559;SDS011;36510;52.610;13.468;2022-07-29T09:56:41;8.57;;;1.70;;
50559;SDS011;36510;52.610;13.468;2022-07-29T10:06:22;2.28;;;1.30;;
50559;SDS011;36510;52.610;13.468;2022-07-29T10:11:14;6.47;;;1.63;;
50559;SDS011;36510;52.610;13.468;2022-07-29T10:16:06;2.78;;;1.60;;
50559;SDS011;36510;52.610;13.468;2022-07-29T10:20:56;3.47;;;1.45;;
50559;SDS011;36510;52.610;13.468;2022-07-29T10:25:47;4.18;;;1.60;;
50559;SDS011;36510;52.610;13.468;2022-07-29T10:30:37;3.90;;;1.25;;
50559;SDS011;36510;52.610;13.468;2022-07-29T10:35:53;3.88;;;1.20;;
50559;SDS011;36510;52.610;13.468;2022-07-29T10:46:17;4.03;;;1.10;;
50559;SDS011;36510;52.610;13.468;2022-07-29T10:51:08;1.63;;;0.90;;
50559;SDS011;36510;52.610;13.468;2022-07-29T10:55:59;2.65;;;1.23;;
50559;SDS011;36510;52.610;13.468;2022-07-29T11:00:50;2.08;;;1.10;;
50559;SDS011;36510;52.610;13.468;2022-07-29T11:05:55;2.03;;;1.00;;
50559;SDS011;36510;52.610;13.468;2022-07-29T11:10:53;4.45;;;1.30;;
50559;SDS011;36510;52.610;13.468;2022-07-29T11:16:04;6.90;;;1.58;;
50559;SDS011;36510;52.610;13.468;2022-07-29T11:20:56;3.72;;;1.35;;
50559;SDS011;36510;52.610;13.468;2022-07-29T11:26:12;3.47;;;1.20;;
50559;SDS011;36510;52.610;13.468;2022-07-29T11:31:03;5.68;;;1.30;;
50559;SDS011;36510;52.610;13.468;2022-07-29T11:36:06;4.32;;;1.38;;
50559;SDS011;36510;52.610;13.468;2022-07-29T11:46:07;4.25;;;1.27;;
50559;SDS011;36510;52.610;13.468;2022-07-29T11:50:58;3.65;;;1.33;;
50559;SDS011;36510;52.610;13.468;2022-07-29T11:55:49;4.07;;;1.30;;
50559;SDS011;36510;52.610;13.468;2022-07-29T12:00:45;2.28;;;1.42;;
50559;SDS011;36510;52.610;13.468;2022-07-29T12:05:41;3.83;;;1.40;;
50559;SDS011;36510;52.610;13.468;2022-07-29T12:10:34;5.43;;;1.65;;
50559;SDS011;36510;52.610;13.468;2022-07-29T12:15:25;3.47;;;1.50;;
50559;SDS011;36510;52.610;13.468;2022-07-29T12:20:23;3.58;;;1.60;;
50559;SDS011;36510;52.610;13.468;2022-07-29T12:25:18;4.05;;;1.80;;
50559;SDS011;36510;52.610;13.468;2022-07-29T12:30:10;4.57;;;1.80;;
50559;SDS011;36510;52.610;13.468;2022-07-29T12:35:06;2.88;;;1.70;;
50559;SDS011;36510;52.610;13.468;2022-07-29T12:39:57;3.97;;;1.80;;
50559;SDS011;36510;52.610;13.468;2022-07-29T12:44:49;6.85;;;1.88;;
50559;SDS011;36510;52.610;13.468;2022-07-29T12:49:41;4.18;;;1.63;;
50559;SDS011;36510;52.610;13.468;2022-07-29T12:54:31;3.75;;;1.92;;
50559;SDS011;36510;52.610;13.468;2022-07-29T12:59:22;3.05;;;1.77;;
50559;SDS011;36510;52.610;13.468;2022-07-29T13:04:23;3.33;;;1.60;;
50559;SDS011;36510;52.610;13.468;2022-07-29T13:09:18;3.17;;;1.88;;
50559;SDS011;36510;52.610;13.468;2022-07-29T13:14:10;4.50;;;2.22;;
50559;SDS011;36510;52.610;13.468;2022-07-29T13:19:03;5.15;;;2.20;;
50559;SDS011;36510;52.610;13.468;2022-07-29T13:23:55;4.38;;;2.10;;
50559;SDS011;36510;52.610;13.468;2022-07-29T13:28:45;5.88;;;2.17;;
50559;SDS011;36510;52.610;13.468;2022-07-29T13:33:36;6.80;;;2.13;;
50559;SDS011;36510;52.610;13.468;2022-07-29T13:38:26;5.75;;;2.35;;
50559;SDS011;36510;52.610;13.468;2022-07-29T13:43:17;4.35;;;2.28;;
50559;SDS011;36510;52.610;13.468;2022-07-29T13:48:07;3.88;;;2.50;;
50559;SDS011;36510;52.610;13.468;2022-07-29T13:52:58;5.97;;;2.45;;
50559;SDS011;36510;52.610;13.468;2022-07-29T13:57:48;3.55;;;2.10;;
50559;SDS011;36510;52.610;13.468;2022-07-29T14:02:39;5.00;;;2.40;;
50559;SDS011;36510;52.610;13.468;2022-07-29T14:07:30;3.10;;;2.25;;
50559;SDS011;36510;52.610;13.468;2022-07-29T14:12:20;5.57;;;2.10;;
50559;SDS011;36510;52.610;13.468;2022-07-29T14:17:11;3.80;;;2.22;;
50559;SDS011;36510;52.610;13.468;2022-07-29T14:22:02;7.93;;;2.53;;
50559;SDS011;36510;52.610;13.468;2022-07-29T14:26:53;6.53;;;2.30;;
50559;SDS011;36510;52.610;13.468;2022-07-29T14:31:43;5.40;;;2.20;;
50559;SDS011;36510;52.610;13.468;2022-07-29T14:36:34;3.33;;;2.40;;
50559;SDS011;36510;52.610;13.468;2022-07-29T14:41:24;6.78;;;2.20;;
50559;SDS011;36510;52.610;13.468;2022-07-29T14:46:17;3.65;;;1.85;;
50559;SDS011;36510;52.610;13.468;2022-07-29T14:51:08;4.22;;;2.38;;
50559;SDS011;36510;52.610;13.468;2022-07-29T14:55:58;4.30;;;2.50;;
50559;SDS011;36510;52.610;13.468;2022-07-29T15:00:49;3.75;;;2.50;;
50559;SDS011;36510;52.610;13.468;2022-07-29T15:05:39;3.15;;;2.20;;
50559;SDS011;36510;52.610;13.468;2022-07-29T15:10:30;3.72;;;2.45;;
50559;SDS011;36510;52.610;13.468;2022-07-29T15:15:21;5.05;;;2.67;;
50559;SDS011;36510;52.610;13.468;2022-07-29T15:20:11;2.92;;;2.20;;
50559;SDS011;36510;52.610;13.468;2022-07-29T15:25:02;4.70;;;2.20;;
50559;SDS011;36510;52.610;13.468;2022-07-29T15:29:53;4.63;;;2.63;;
50559;SDS011;36510;52.610;13.468;2022-07-29T15:34:43;6.70;;;2.15;;
50559;SDS011;36510;52.610;13.468;2022-07-29T15:39:33;4.80;;;2.20;;
50559;SDS011;36510;52.610;13.468;2022-07-29T15:44:24;7.10;;;2.08;;
50559;SDS011;36510;52.610;13.468;2022-07-29T15:49:14;6.93;;;2.00;;
50559;SDS011;36510;52.610;13.468;2022-07-29T15:54:05;6.28;;;2.25;;
50559;SDS011;36510;52.610;13.468;2022-07-29T15:58:55;5.85;;;1.90;;
50559;SDS011;36510;52.610;13.468;2022-07-29T16:03:47;2.67;;;1.90;;
50559;SDS011;36510;52.610;13.468;2022-07-29T16:08:38;2.83;;;1.90;;
50559;SDS011;36510;52.610;13.468;2022-07-29T16:13:28;6.88;;;2.40;;
50559;SDS011;36510;52.610;13.468;2022-07-29T16:18:18;9.45;;;2.00;;
50559;SDS011;36510;52.610;13.468;2022-07-29T16:23:09;3.47;;;1.80;;
50559;SDS011;36510;52.610;13.468;2022-07-29T16:28:01;4.88;;;1.80;;
50559;SDS011;36510;52.610;13.468;2022-07-29T16:32:52;3.03;;;1.80;;
50559;SDS011;36510;52.610;13.468;2022-07-29T16:37:45;6.18;;;1.60;;
50559;SDS011;36510;52.610;13.468;2022-07-29T16:42:36;4.13;;;1.80;;
50559;SDS011;36510;52.610;13.468;2022-07-29T16:47:26;4.45;;;1.58;;
50559;SDS011;36510;52.610;13.468;2022-07-29T16:52:17;3.88;;;2.00;;
50559;SDS011;36510;52.610;13.468;2022-07-29T16:57:07;2.67;;;1.80;;
50559;SDS011;36510;52.610;13.468;2022-07-29T17:01:58;9.75;;;2.00;;
50559;SDS011;36510;52.610;13.468;2022-07-29T17:06:51;7.38;;;1.80;;
50559;SDS011;36510;52.610;13.468;2022-07-29T17:23:06;5.35;;;2.85;;
50559;SDS011;36510;52.610;13.468;2022-07-29T17:33:46;5.63;;;2.00;;
50559;SDS011;36510;52.610;13.468;2022-07-29T17:50:19;5.78;;;2.13;;
50559;SDS011;36510;52.610;13.468;2022-07-29T17:55:12;4.90;;;1.70;;
50559;SDS011;36510;52.610;13.468;2022-07-29T18:00:03;4.15;;;2.20;;
50559;SDS011;36510;52.610;13.468;2022-07-29T18:04:54;6.90;;;1.92;;
50559;SDS011;36510;52.610;13.468;2022-07-29T18:09:45;5.10;;;2.00;;
50559;SDS011;36510;52.610;13.468;2022-07-29T18:14:36;5.75;;;2.05;;
50559;SDS011;36510;52.610;13.468;2022-07-29T18:35:08;5.22;;;1.80;;
50559;SDS011;36510;52.610;13.468;2022-07-29T18:39:59;7.78;;;1.77;;
50559;SDS011;36510;52.610;13.468;2022-07-29T18:44:53;5.28;;;1.60;;
50559;SDS011;36510;52.610;13.468;2022-07-29T18:49:43;5.15;;;1.90;;
50559;SDS011;36510;52.610;13.468;2022-07-29T18:54:34;5.53;;;1.52;;
50559;SDS011;36510;52.610;13.468;2022-07-29T18:59:24;3.55;;;1.60;;
50559;SDS011;36510;52.610;13.468;2022-07-29T19:04:23;3.30;;;1.60;;
50559;SDS011;36510;52.610;13.468;2022-07-29T19:09:13;4.57;;;2.05;;
50559;SDS011;36510;52.610;13.468;2022-07-29T19:14:05;8.27;;;2.05;;
50559;SDS011;36510;52.610;13.468;2022-07-29T19:18:56;3.35;;;1.80;;
50559;SDS011;36510;52.610;13.468;2022-07-29T19:23:47;5.50;;;1.90;;
50559;SDS011;36510;52.610;13.468;2022-07-29T19:28:38;9.82;;;1.98;;
50559;SDS011;36510;52.610;13.468;2022-07-29T19:33:29;7.35;;;1.77;;
50559;SDS011;36510;52.610;13.468;2022-07-29T19:38:20;4.78;;;2.20;;
50559;SDS011;36510;52.610;13.468;2022-07-29T19:43:11;2.85;;;1.40;;
50559;SDS011;36510;52.610;13.468;2022-07-29T19:48:02;5.90;;;1.80;;
50559;SDS011;36510;52.610;13.468;2022-07-29T19:52:54;5.38;;;1.67;;
50559;SDS011;36510;52.610;13.468;2022-07-29T19:57:45;4.53;;;1.83;;
50559;SDS011;36510;52.610;13.468;2022-07-29T20:02:36;4.57;;;1.90;;
50559;SDS011;36510;52.610;13.468;2022-07-29T20:07:26;8.95;;;2.20;;
50559;SDS011;36510;52.610;13.468;2022-07-29T20:12:17;6.10;;;1.92;;
50559;SDS011;36510;52.610;13.468;2022-07-29T20:17:08;5.53;;;2.25;;
50559;SDS011;36510;52.610;13.468;2022-07-29T20:21:59;4.97;;;2.10;;
50559;SDS011;36510;52.610;13.468;2022-07-29T20:26:52;5.63;;;1.88;;
50559;SDS011;36510;52.610;13.468;2022-07-29T20:31:43;4.70;;;2.13;;
50559;SDS011;36510;52.610;13.468;2022-07-29T20:36:34;6.82;;;1.75;;
50559;SDS011;36510;52.610;13.468;2022-07-29T20:41:25;5.68;;;1.95;;
50559;SDS011;36510;52.610;13.468;2022-07-29T20:46:17;3.35;;;1.60;;
50559;SDS011;36510;52.610;13.468;2022-07-29T20:51:08;4.70;;;1.92;;
50559;SDS011;36510;52.610;13.468;2022-07-29T20:55:59;4.65;;;1.70;;
50559;SDS011;36510;52.610;13.468;2022-07-29T21:00:49;5.28;;;1.80;;
50559;SDS011;36510;52.610;13.468;2022-07-29T21:05:40;4.32;;;1.80;;
50559;SDS011;36510;52.610;13.468;2022-07-29T21:10:32;4.18;;;1.58;;
50559;SDS011;36510;52.610;13.468;2022-07-29T21:15:23;5.28;;;2.05;;
50559;SDS011;36510;52.610;13.468;2022-07-29T21:20:16;7.57;;;1.90;;
50559;SDS011;36510;52.610;13.468;2022-07-29T21:25:08;4.65;;;1.80;;
50559;SDS011;36510;52.610;13.468;2022-07-29T21:29:59;5.75;;;2.00;;
50559;SDS011;36510;52.610;13.468;2022-07-29T21:34:50;6.65;;;1.70;;
50559;SDS011;36510;52.610;13.468;2022-07-29T21:39:40;4.00;;;1.52;;
50559;SDS011;36510;52.610;13.468;2022-07-29T21:44:30;3.35;;;1.88;;
50559;SDS011;36510;52.610;13.468;2022-07-29T21:49:21;5.03;;;1.65;;
50559;SDS011;36510;52.610;13.468;2022-07-29T21:54:11;3.45;;;1.77;;
50559;SDS011;36510;52.610;13.468;2022-07-29T21:59:02;5.20;;;1.80;;
50559;SDS011;36510;52.610;13.468;2022-07-29T22:03:52;5.10;;;2.10;;
50559;SDS011;36510;52.610;13.468;2022-07-29T22:08:43;6.32;;;1.80;;
50559;SDS011;36510;52.610;13.468;2022-07-29T22:13:34;5.25;;;2.50;;
50559;SDS011;36510;52.610;13.468;2022-07-29T22:18:25;4.93;;;1.73;;
50559;SDS011;36510;52.610;13.468;2022-07-29T22:23:15;3.42;;;1.85;;
50559;SDS011;36510;52.610;13.468;2022-07-29T22:28:06;4.70;;;1.90;;
50559;SDS011;36510;52.610;13.468;2022-07-29T22:32:56;4.15;;;1.90;;
50559;SDS011;36510;52.610;13.468;2022-07-29T22:37:47;5.03;;;1.70;;
50559;SDS011;36510;52.610;13.468;2022-07-29T22:42:37;5.03;;;2.00;;
50559;SDS011;36510;52.610;13.468;2022-07-29T22:47:28;7.57;;;2.10;;
50559;SDS011;36510;52.610;13.468;2022-07-29T22:52:18;8.10;;;2.28;;
50559;SDS011;36510;52.610;13.468;2022-07-29T22:57:08;3.30;;;1.80;;
50559;SDS011;36510;52.610;13.468;2022-07-29T23:01:59;5.97;;;1.92;;
50559;SDS011;36510;52.610;13.468;2022-07-29T23:06:49;6.07;;;1.90;;
50559;SDS011;36510;52.610;13.468;2022-07-29T23:11:40;6.35;;;2.00;;
50559;SDS011;36510;52.610;13.468;2022-07-29T23:16:30;3.08;;;1.85;;
50559;SDS011;36510;52.610;13.468;2022-07-29T23:21:21;4.93;;;2.03;;
50559;SDS011;36510;52.610;13.468;2022-07-29T23:26:12;6.65;;;1.85;;
50559;SDS011;36510;52.610;13.468;2022-07-29T23:31:05;4.55;;;2.10;;
50559;SDS011;36510;52.610;13.468;2022-07-29T23:35:56;2.67;;;1.75;;
50559;SDS011;36510;52.610;13.468;2022-07-29T23:40:46;4.28;;;2.17;;
50559;SDS011;36510;52.610;13.468;2022-07-29T23:45:38;4.82;;;2.47;;
50559;SDS011;36510;52.610;13.468;2022-07-29T23:50:28;7.38;;;1.88;;
50559;SDS011;36510;52.610;13.468;2022-07-29T23:55:19;2.80;;;1.98;;
